Terminal Aerodrome Forecast
Issued by NWS

Home | Current Version | Previous Version | Text Only | Print | Product List | Glossary On
Versions: 1 2 3 4 5 6 7 8 9 10 11 12 13 14 15 16 17 18 19
000
FTUS43 KILX 180539
TAFDEC
TAF
KDEC 180539Z 1806/1906 17004KT P6SM SCT150
      TEMPO 1808/1812 4SM BR
     FM181300 15006KT P6SM BKN250
     FM181800 13010G15KT P6SM SCT150 OVC200
     FM190000 10010KT P6SM SCT050 OVC150=

USA.gov is the U.S. government's official web portal to all federal, state and local government web resources and services.